Time;durP1;ratioP1;P1;durP2;ratioP2;P2;SDS_P1;SDS_P2;PMS_P1;PMS_P2;Temp;Humidity;BMP_temperature;BMP_pressure;BME280_temperature;BME280_humidity;BME280_pressure;Samples;Min_cycle;Max_cycle;Signal;HPM_P1;HPM_P2
2021/12/28 00:01:39;;;;;;;15.38;11.07;;;;;;;3.05;88.95;99058.28;6215136;23;19915;-62
2021/12/28 00:04:42;;;;;;;;;;;;;;;3.07;88.66;99067.66;6215540;23;20142;-62
2021/12/28 00:07:45;;;;;;;13.25;9.77;;;;;;;3.02;88.58;99059.25;6215203;23;19962;-62
2021/12/28 00:10:49;;;;;;;15.70;10.35;;;;;;;3.05;88.41;99064.28;6215223;23;20111;-62
2021/12/28 00:13:59;;;;;;;;;;;;;;;3.12;88.47;99060.53;6215781;23;20109;-62
2021/12/28 00:20:27;;;;;;;15.73;10.68;;;;;;;3.09;88.32;99054.66;6214869;23;20402;-63
2021/12/28 00:23:37;;;;;;;14.90;12.55;;;;;;;3.13;88.66;99056.22;6215174;23;20503;-63
2021/12/28 00:26:40;;;;;;;15.40;10.90;;;;;;;3.12;88.72;99046.78;6215192;23;20465;-62
2021/12/28 00:29:43;;;;;;;13.88;10.98;;;;;;;3.20;88.13;99040.34;6196805;23;20082;-62
2021/12/28 00:32:52;;;;;;;14.00;10.70;;;;;;;3.21;88.08;99033.44;6214997;23;20489;-62
2021/12/28 00:35:55;;;;;;;13.82;10.57;;;;;;;3.23;88.03;99034.22;6214851;23;20098;-63
2021/12/28 00:39:00;;;;;;;17.10;11.80;;;;;;;3.22;87.91;99035.09;6215083;23;20136;-63
2021/12/28 00:42:03;;;;;;;16.55;10.75;;;;;;;3.20;88.06;99026.63;6214982;23;20043;-62
2021/12/28 00:45:07;;;;;;;14.00;10.02;;;;;;;3.21;88.38;99033.44;6196539;23;20027;-62
2021/12/28 00:48:10;;;;;;;13.07;10.88;;;;;;;3.18;88.35;99034.41;6214554;23;20051;-63
2021/12/28 00:51:13;;;;;;;13.70;10.93;;;;;;;3.16;88.69;99012.16;6214732;23;20504;-62
2021/12/28 00:54:17;;;;;;;13.88;10.10;;;;;;;3.19;88.46;99014.59;6214668;23;20114;-62
2021/12/28 00:57:20;;;;;;;;;;;;;;;3.11;88.55;99017.53;6215318;23;20028;-62
2021/12/28 01:00:26;;;;;;;13.73;10.73;;;;;;;3.21;88.33;98998.13;6214777;23;19914;-62
2021/12/28 01:03:34;;;;;;;13.40;9.98;;;;;;;3.25;88.13;99015.16;6214502;23;20066;-62
2021/12/28 01:06:37;;;;;;;13.45;9.98;;;;;;;3.21;88.50;99023.13;6214639;23;20027;-62
2021/12/28 01:09:42;;;;;;;13.68;10.65;;;;;;;3.28;88.03;99014.16;6214726;23;20023;-63
2021/12/28 01:12:49;;;;;;;14.88;11.50;;;;;;;3.26;87.95;99006.50;6214789;23;20027;-62
2021/12/28 01:15:53;;;;;;;13.40;10.43;;;;;;;3.23;88.16;99018.72;6214646;23;20086;-62
2021/12/28 01:18:56;;;;;;;13.18;10.20;;;;;;;3.27;87.97;99017.66;6214431;23;20028;-63
2021/12/28 01:22:01;;;;;;;13.00;10.57;;;;;;;3.24;88.43;99007.47;6196268;23;20047;-62
2021/12/28 01:25:06;;;;;;;14.70;11.52;;;;;;;3.23;88.41;99009.22;6214734;23;20070;-62
2021/12/28 01:28:11;;;;;;;21.05;11.65;;;;;;;3.13;88.84;99000.22;6214538;23;20026;-62
2021/12/28 01:31:14;;;;;;;14.23;10.98;;;;;;;3.19;88.97;98994.78;6214408;23;20044;-62
2021/12/28 01:34:18;;;;;;;12.32;10.07;;;;;;;3.26;88.98;98985.84;6214373;23;20047;-63
2021/12/28 01:37:21;;;;;;;13.18;10.93;;;;;;;3.24;88.72;98991.97;6214228;23;20027;-62
2021/12/28 01:40:32;;;;;;;12.13;8.77;;;;;;;3.23;88.79;98985.16;6214459;23;20469;-63
2021/12/28 01:43:38;;;;;;;13.43;10.40;;;;;;;3.22;88.48;98989.47;6214364;23;20027;-62
2021/12/28 01:46:41;;;;;;;14.63;11.07;;;;;;;3.21;88.97;98992.13;6214417;23;20059;-63
2021/12/28 01:49:45;;;;;;;14.35;10.48;;;;;;;3.24;88.28;98989.41;6214302;23;20043;-63
2021/12/28 01:52:48;;;;;;;12.73;9.68;;;;;;;3.31;88.24;98985.59;6214470;23;20098;-62
2021/12/28 01:55:54;;;;;;;;;;;;;;;3.25;88.28;98979.00;6214527;23;20073;-62
2021/12/28 01:58:57;;;;;;;15.55;10.52;;;;;;;3.29;88.48;98964.19;6214229;23;20265;-63
2021/12/28 02:02:00;;;;;;;13.38;9.75;;;;;;;3.31;88.84;98967.53;6213764;23;20019;-62
2021/12/28 02:05:04;;;;;;;12.25;9.90;;;;;;;3.39;88.14;98967.19;6214400;23;20405;-62
2021/12/28 02:08:09;;;;;;;11.63;9.48;;;;;;;3.36;88.11;98965.56;6214280;23;20036;-62
2021/12/28 02:11:13;;;;;;;12.63;9.85;;;;;;;3.37;88.52;98954.31;6214175;23;20071;-63
2021/12/28 02:14:16;;;;;;;13.82;10.18;;;;;;;3.37;88.36;98950.91;6214193;23;20102;-63
2021/12/28 02:22:03;;;;;;;13.55;10.65;;;;;;;3.27;88.97;98942.75;6211011;23;19915;-62
2021/12/28 02:25:08;;;;;;;12.73;9.80;;;;;;;3.26;89.09;98948.84;6214132;23;20098;-62
2021/12/28 02:28:13;;;;;;;13.75;10.05;;;;;;;3.30;89.01;98940.03;6214162;23;20159;-62
2021/12/28 02:31:17;;;;;;;12.10;9.77;;;;;;;3.34;88.83;98933.78;6213949;23;20100;-63
2021/12/28 02:34:20;;;;;;;12.07;9.60;;;;;;;3.39;88.37;98931.00;6214279;23;20027;-62
2021/12/28 02:37:24;;;;;;;14.32;10.02;;;;;;;3.38;88.52;98919.84;6214127;23;20584;-62
2021/12/28 02:40:30;;;;;;;15.90;10.38;;;;;;;3.43;88.63;98920.44;6214109;23;20519;-63
2021/12/28 02:43:34;;;;;;;15.43;9.40;;;;;;;3.46;88.55;98915.13;6213836;23;20027;-62
2021/12/28 02:46:37;;;;;;;;;;;;;;;3.54;88.57;98908.72;6214509;23;20027;-63
2021/12/28 02:49:40;;;;;;;13.60;10.82;;;;;;;3.50;88.47;98901.13;6214106;23;19922;-62
2021/12/28 02:52:44;;;;;;;12.70;9.25;;;;;;;3.38;88.96;98890.56;6214084;23;20413;-63
2021/12/28 02:55:48;;;;;;;12.13;8.70;;;;;;;3.44;88.91;98898.84;6213862;23;20156;-63
2021/12/28 02:58:52;;;;;;;12.98;10.27;;;;;;;3.35;89.54;98896.72;6213954;23;20023;-63
2021/12/28 03:01:55;;;;;;;15.25;10.32;;;;;;;3.40;89.13;98891.31;6213920;23;20019;-62
2021/12/28 03:04:59;;;;;;;15.25;10.68;;;;;;;3.35;89.79;98890.69;6214102;23;20027;-62
2021/12/28 03:08:02;;;;;;;;;;;;;;;3.39;89.52;98884.50;6214514;23;20027;-62
2021/12/28 03:11:07;;;;;;;10.88;8.80;;;;;;;3.43;89.57;98884.25;6213839;23;20364;-63
2021/12/28 03:14:10;;;;;;;10.68;8.98;;;;;;;3.43;89.77;98873.94;6215767;23;20358;-63
2021/12/28 03:17:14;;;;;;;14.20;9.27;;;;;;;3.48;89.44;98877.13;6215978;23;20082;-63
2021/12/28 03:20:18;;;;;;;12.80;9.98;;;;;;;3.58;89.10;98871.50;6215794;23;20473;-62
2021/12/28 03:23:23;;;;;;;13.43;8.75;;;;;;;3.66;88.65;98864.19;6215630;23;20023;-62
2021/12/28 03:26:26;;;;;;;12.82;9.50;;;;;;;3.64;89.03;98856.53;6215701;23;20100;-63
2021/12/28 03:29:29;;;;;;;;;;;;;;;3.67;88.91;98858.09;6197634;23;20365;-62
2021/12/28 03:32:33;;;;;;;12.20;9.65;;;;;;;3.61;89.08;98864.44;6215757;23;19938;-63
2021/12/28 03:35:36;;;;;;;;;;;;;;;3.67;89.09;98863.25;6216134;23;20027;-62
2021/12/28 03:38:40;;;;;;;11.52;8.90;;;;;;;3.66;89.07;98859.00;6215745;23;19999;-62
2021/12/28 03:41:43;;;;;;;12.10;9.15;;;;;;;3.68;89.27;98857.19;6216030;23;20482;-62
2021/12/28 03:44:47;;;;;;;11.00;8.77;;;;;;;3.71;89.05;98850.13;6215602;23;20036;-62
2021/12/28 03:47:50;;;;;;;10.82;9.00;;;;;;;3.69;89.38;98844.19;6197203;23;20132;-63
2021/12/28 03:50:53;;;;;;;11.13;8.98;;;;;;;3.74;89.15;98846.56;6215234;23;20027;-63
2021/12/28 03:53:57;;;;;;;;;;;;;;;3.72;89.51;98845.78;6215753;23;20027;-63
2021/12/28 03:57:00;;;;;;;11.68;8.75;;;;;;;3.73;89.56;98844.84;6196997;23;19938;-62
2021/12/28 04:00:08;;;;;;;12.55;9.55;;;;;;;3.74;89.34;98841.38;6215825;23;20027;-62
2021/12/28 04:03:13;;;;;;;10.70;8.63;;;;;;;3.74;89.85;98836.22;6215465;23;20351;-63
2021/12/28 04:06:18;;;;;;;12.25;9.18;;;;;;;3.79;89.52;98839.38;6215321;23;20023;-63
2021/12/28 04:09:45;;;;;;;10.82;8.75;;;;;;;3.75;89.90;98831.88;6215362;23;20078;-62
2021/12/28 04:12:45;;;;;;;12.02;8.85;;;;;;;3.80;90.09;98828.13;6215625;23;20355;-63
2021/12/28 04:15:49;;;;;;;15.95;10.02;;;;;;;3.84;89.73;98834.81;6215460;23;20028;-63
2021/12/28 04:18:53;;;;;;;13.68;8.50;;;;;;;3.86;89.64;98825.25;6215059;23;20460;-62
2021/12/28 04:21:56;;;;;;;13.38;9.02;;;;;;;3.91;89.51;98823.22;6215615;23;20111;-62
2021/12/28 04:25:00;;;;;;;10.90;8.60;;;;;;;3.85;89.93;98826.13;6214884;23;20100;-63
2021/12/28 04:28:03;;;;;;;11.27;8.55;;;;;;;3.86;90.06;98820.06;6215243;23;20031;-63
2021/12/28 04:31:07;;;;;;;12.82;8.52;;;;;;;3.83;89.94;98820.22;6215123;23;20027;-63
2021/12/28 04:34:10;;;;;;;11.25;8.68;;;;;;;3.85;90.58;98815.78;6215141;23;20028;-63
2021/12/28 04:37:14;;;;;;;10.32;8.18;;;;;;;3.87;90.37;98818.31;6215100;23;20026;-62
2021/12/28 04:40:18;;;;;;;12.30;8.70;;;;;;;3.86;90.18;98817.50;6214834;23;20034;-62
2021/12/28 04:43:21;;;;;;;11.27;8.95;;;;;;;3.89;90.43;98806.97;6196697;23;20484;-62
2021/12/28 04:46:25;;;;;;;11.45;9.50;;;;;;;3.87;90.40;98803.63;6215024;23;20477;-63
2021/12/28 04:49:29;;;;;;;;;;;;;;;3.91;90.18;98799.13;6215891;23;20114;-63
2021/12/28 04:52:35;;;;;;;11.30;7.85;;;;;;;3.89;90.33;98804.41;6214877;23;19922;-63
2021/12/28 04:55:43;;;;;;;11.77;8.60;;;;;;;3.93;90.17;98800.72;6210347;23;20071;-63
2021/12/28 04:58:46;;;;;;;10.75;8.60;;;;;;;3.94;90.54;98794.63;6210724;23;20031;-63
2021/12/28 05:01:50;;;;;;;11.63;9.27;;;;;;;3.92;90.37;98796.47;6211034;23;20039;-63
2021/12/28 05:04:53;;;;;;;;;;;;;;;3.94;90.46;98786.88;6211528;23;20357;-63
2021/12/28 05:07:56;;;;;;;9.73;8.20;;;;;;;3.95;90.04;98795.47;6210655;23;19918;-63
2021/12/28 05:10:59;;;;;;;;;;;;;;;4.00;90.08;98790.06;6210852;23;20047;-63
2021/12/28 05:14:04;;;;;;;10.27;7.87;;;;;;;4.03;89.98;98787.31;6210753;23;19933;-63
2021/12/28 05:17:08;;;;;;;11.80;8.73;;;;;;;3.97;90.15;98776.38;6210471;23;20035;-63
2021/12/28 05:20:13;;;;;;;14.80;10.13;;;;;;;3.94;90.76;98768.78;6204664;23;20094;-63
2021/12/28 05:23:16;;;;;;;11.02;8.77;;;;;;;4.00;90.50;98762.44;6204795;23;20030;-64
2021/12/28 05:26:20;;;;;;;14.30;9.32;;;;;;;4.01;90.58;98768.44;6205119;23;20367;-62
2021/12/28 05:29:23;;;;;;;;;;;;;;;3.88;91.13;98761.34;6206357;23;20071;-62
2021/12/28 05:32:27;;;;;;;13.00;8.50;;;;;;;3.97;90.71;98760.03;6205833;23;19922;-63
2021/12/28 05:35:30;;;;;;;;;;;;;;;3.97;90.80;98760.84;6204981;23;20086;-63
2021/12/28 05:38:34;;;;;;;11.88;8.95;;;;;;;4.07;90.76;98761.19;6204799;23;19958;-63
2021/12/28 05:41:38;;;;;;;11.50;9.98;;;;;;;4.07;90.37;98750.84;6203515;23;20070;-62
2021/12/28 05:44:41;;;;;;;14.10;11.00;;;;;;;3.98;90.48;98741.00;6205481;23;20023;-63
2021/12/28 05:47:44;;;;;;;;;;;;;;;3.93;91.06;98738.66;6206311;23;20051;-62
2021/12/28 05:50:48;;;;;;;11.43;9.05;;;;;;;4.04;90.57;98734.66;6204907;23;19954;-63
2021/12/28 05:53:51;;;;;;;;;;;;;;;4.00;90.66;98728.00;6204779;23;20406;-63
2021/12/28 05:56:54;;;;;;;10.35;8.30;;;;;;;4.08;90.80;98726.63;6204287;23;19923;-63
2021/12/28 05:59:58;;;;;;;;;;;;;;;4.04;90.57;98729.50;6205275;23;20031;-62
2021/12/28 06:03:01;;;;;;;12.82;9.45;;;;;;;4.09;90.72;98725.75;6205773;23;19986;-63
2021/12/28 06:06:04;;;;;;;;;;;;;;;4.13;90.71;98722.06;6205201;23;20075;-63
2021/12/28 06:09:50;;;;;;;12.52;9.13;;;;;;;4.16;90.25;98715.91;6204350;23;19958;-63
2021/12/28 06:12:54;;;;;;;17.85;14.90;;;;;;;4.16;90.27;98705.56;6203461;23;20051;-62
2021/12/28 06:19:45;;;;;;;11.80;9.73;;;;;;;4.16;90.58;98714.13;6203693;23;20032;-63
2021/12/28 06:22:50;;;;;;;10.70;8.80;;;;;;;4.17;90.46;98704.63;6185960;23;20027;-62
2021/12/28 06:25:53;;;;;;;9.95;7.72;;;;;;;4.20;90.38;98704.44;6203699;23;20028;-63
2021/12/28 06:28:58;;;;;;;8.95;6.97;;;;;;;4.15;90.60;98701.31;6205324;23;20028;-63
2021/12/28 06:32:03;;;;;;;9.73;6.60;;;;;;;4.16;90.43;98700.38;6184600;23;20023;-63
2021/12/28 06:35:08;;;;;;;15.63;10.98;;;;;;;4.12;90.77;98699.72;6202789;23;20127;-63
2021/12/28 06:38:11;;;;;;;10.93;7.32;;;;;;;4.12;90.38;98704.88;6202974;23;20394;-63
2021/12/28 06:41:14;;;;;;;9.65;7.65;;;;;;;4.15;90.68;98698.72;6203201;23;20023;-63
2021/12/28 06:44:18;;;;;;;;;;;;;;;4.19;90.50;98690.69;6203396;23;20035;-63
2021/12/28 06:47:21;;;;;;;11.32;8.35;;;;;;;4.15;90.69;98688.38;6204665;23;20026;-63
2021/12/28 06:50:24;;;;;;;12.55;8.25;;;;;;;4.14;90.54;98690.09;6204939;23;20027;-63
2021/12/28 06:53:28;;;;;;;9.27;7.93;;;;;;;4.09;91.04;98692.13;6202336;23;20090;-62
2021/12/28 06:56:32;;;;;;;11.77;7.72;;;;;;;4.07;90.72;98690.53;6202994;23;20127;-63
2021/12/28 06:59:40;;;;;;;10.35;7.03;;;;;;;4.07;90.98;98687.94;6202553;23;20502;-63
2021/12/28 07:02:44;;;;;;;10.55;7.28;;;;;;;4.13;91.15;98688.44;6204489;23;20024;-62
2021/12/28 07:05:47;;;;;;;16.40;7.50;;;;;;;4.17;90.55;98702.03;6208407;23;20106;-62
2021/12/28 07:08:51;;;;;;;9.63;8.13;;;;;;;4.16;90.85;98697.78;6210334;23;20062;-63
2021/12/28 07:11:54;;;;;;;;;;;;;;;4.18;90.33;98695.97;6209916;23;20027;-62
2021/12/28 07:14:57;;;;;;;8.88;6.85;;;;;;;4.14;90.54;98694.44;6203368;23;19958;-62
2021/12/28 07:18:02;;;;;;;12.05;6.88;;;;;;;4.16;90.22;98698.63;6199670;23;20122;-63
2021/12/28 07:21:05;;;;;;;10.90;8.13;;;;;;;4.10;90.71;98704.13;6200754;23;20028;-63
2021/12/28 07:24:10;;;;;;;9.68;7.18;;;;;;;4.17;90.56;98704.63;6201665;23;20027;-62
2021/12/28 07:27:14;;;;;;;9.65;6.53;;;;;;;4.17;90.41;98700.28;6201897;23;20090;-63
2021/12/28 07:30:19;;;;;;;9.75;6.07;;;;;;;4.17;90.19;98699.44;6182147;23;20111;-64
2021/12/28 07:33:23;;;;;;;8.73;6.65;;;;;;;4.15;90.50;98693.53;6202024;23;20063;-62
2021/12/28 07:36:27;;;;;;;9.45;7.75;;;;;;;4.12;90.85;98706.66;6202464;23;20027;-63
2021/12/28 07:39:30;;;;;;;;;;;;;;;4.16;90.77;98700.38;6201833;23;20032;-62
2021/12/28 07:42:35;;;;;;;12.45;8.85;;;;;;;4.19;90.78;98706.22;6195175;23;19954;-63
2021/12/28 07:45:39;;;;;;;9.85;8.27;;;;;;;4.20;90.48;98694.09;6206621;23;20040;-63
2021/12/28 07:48:42;;;;;;;;;;;;;;;4.24;90.62;98687.84;6205181;23;20031;-63
2021/12/28 07:51:46;;;;;;;9.55;7.93;;;;;;;4.22;90.84;98691.44;6207910;23;20345;-62
2021/12/28 07:54:49;;;;;;;9.18;7.78;;;;;;;4.18;90.80;98680.44;6207174;23;20485;-62
2021/12/28 07:57:53;;;;;;;11.10;7.10;;;;;;;4.13;90.92;98679.84;6206420;23;20532;-63
2021/12/28 08:00:57;;;;;;;11.48;8.18;;;;;;;4.18;90.60;98667.50;6206801;23;20020;-63
2021/12/28 08:04:51;;;;;;;8.15;6.07;;;;;;;4.20;90.29;98676.00;6205518;23;20030;-63
2021/12/28 08:07:54;;;;;;;10.20;7.57;;;;;;;4.05;90.76;98688.03;6188732;23;20094;-62
2021/12/28 08:10:57;;;;;;;;;;;;;;;3.85;92.34;98689.09;6208451;23;20031;-62
2021/12/28 08:14:01;;;;;;;9.47;6.33;;;;;;;3.96;91.86;98691.13;6206906;23;19954;-63
2021/12/28 08:17:04;;;;;;;12.52;10.05;;;;;;;4.03;91.79;98701.97;6206282;23;20027;-63
2021/12/28 08:20:10;;;;;;;14.98;10.48;;;;;;;4.08;91.39;98698.19;6205862;23;20081;-63
2021/12/28 08:23:15;;;;;;;11.57;9.77;;;;;;;3.97;91.52;98697.97;6208583;23;20070;-62
2021/12/28 08:26:18;;;;;;;12.05;6.63;;;;;;;3.98;91.84;98702.19;6204482;23;20023;-63
2021/12/28 08:29:25;;;;;;;12.00;6.40;;;;;;;4.04;91.57;98703.63;6206503;23;20028;-63
2021/12/28 08:32:28;;;;;;;14.23;7.07;;;;;;;4.03;91.25;98701.97;6205843;23;20086;-62
2021/12/28 08:35:32;;;;;;;9.80;6.50;;;;;;;4.10;91.28;98705.88;6206751;23;20059;-63
2021/12/28 08:50:17;;;;;;;9.07;7.37;;;;;;;3.92;91.53;98690.47;6266922;22;1315103;-62
2021/12/28 08:53:22;;;;;;;7.30;6.38;;;;;;;3.92;91.79;98685.28;6239507;23;20688;-62
2021/12/28 08:56:25;;;;;;;9.20;6.80;;;;;;;3.86;92.36;98693.38;6238326;23;20054;-62
2021/12/28 08:59:29;;;;;;;21.20;15.23;;;;;;;4.01;92.40;98703.78;6239185;23;20027;-62
2021/12/28 09:02:32;;;;;;;;;;;;;;;4.07;91.86;98714.63;6237217;23;20082;-62
2021/12/28 09:05:39;;;;;;;35.50;25.70;;;;;;;4.06;92.76;98732.84;6236900;23;19985;-62
2021/12/28 09:08:42;;;;;;;25.88;23.10;;;;;;;4.32;92.04;98729.66;6237829;23;20480;-62
2021/12/28 09:11:46;;;;;;;23.92;18.27;;;;;;;4.45;91.88;98723.78;6247082;23;20058;-62
2021/12/28 09:14:49;;;;;;;15.45;11.23;;;;;;;4.60;90.92;98722.94;6231407;23;20070;-62
2021/12/28 09:22:16;;;;;;;22.70;17.25;;;;;;;4.86;90.26;98729.22;6250880;23;20519;-68
2021/12/28 09:25:27;;;;;;;24.15;17.30;;;;;;;4.89;90.12;98729.03;6242797;23;20077;-68
2021/12/28 09:28:45;;;;;;;28.10;22.85;;;;;;;4.88;90.41;98743.75;6250111;23;20022;-68
2021/12/28 09:31:48;;;;;;;19.77;16.15;;;;;;;4.84;91.21;98742.25;6252957;23;20022;-68
2021/12/28 09:34:54;;;;;;;;;;;;;;;4.90;91.47;98739.28;6252784;23;20057;-68
2021/12/28 09:37:57;;;;;;;20.17;12.68;;;;;;;4.98;90.81;98735.44;6252422;23;19972;-68
2021/12/28 09:41:01;;;;;;;20.27;13.63;;;;;;;4.97;90.48;98738.94;6250272;23;20038;-68
2021/12/28 09:44:04;;;;;;;24.92;18.70;;;;;;;4.99;90.48;98734.53;6247669;23;20391;-69
2021/12/28 10:07:24;;;;;;;43.92;33.50;;;;;;;5.43;91.47;98721.53;6232189;22;20809;-65
2021/12/28 10:10:35;;;;;;;29.38;23.40;;;;;;;5.49;91.73;98717.75;6215355;23;20032;-62
2021/12/28 10:13:38;;;;;;;23.48;17.85;;;;;;;5.63;91.41;98715.16;6215597;23;20047;-65
2021/12/28 10:17:08;;;;;;;;;;;;;;;5.56;91.99;98719.03;6215927;23;20351;-63
2021/12/28 10:20:16;;;;;;;29.55;23.17;;;;;;;5.58;91.57;98718.03;6215479;23;20340;-64
2021/12/28 10:23:24;;;;;;;34.70;29.92;;;;;;;5.56;92.40;98716.44;6215144;23;20031;-64
2021/12/28 10:26:27;;;;;;;35.88;31.13;;;;;;;5.68;91.75;98715.72;6215347;23;20028;-64
2021/12/28 10:29:30;;;;;;;;;;;;;;;5.67;92.25;98710.59;6216030;23;20055;-64
2021/12/28 10:32:34;;;;;;;29.55;25.60;;;;;;;5.69;93.30;98707.00;6215621;23;20002;-63
2021/12/28 10:35:44;;;;;;;19.95;16.90;;;;;;;5.78;93.16;98703.84;6215768;23;20058;-64
2021/12/28 10:38:51;;;;;;;19.98;16.10;;;;;;;5.83;92.95;98706.97;6215187;23;20023;-64
2021/12/28 10:41:54;;;;;;;19.60;16.35;;;;;;;5.90;92.93;98697.03;6215342;23;20078;-64
2021/12/28 10:44:59;;;;;;;21.23;15.48;;;;;;;5.98;92.81;98699.22;6215259;23;20032;-64
2021/12/28 10:48:19;;;;;;;18.63;13.75;;;;;;;5.97;93.68;98689.75;6215240;23;20366;-64
2021/12/28 10:51:31;;;;;;;11.70;10.07;;;;;;;6.05;93.92;98690.94;6215078;23;20085;-63
2021/12/28 10:54:36;;;;;;;7.85;6.60;;;;;;;6.11;93.35;98683.69;6215557;23;20103;-64
2021/12/28 10:57:40;;;;;;;14.60;9.85;;;;;;;6.06;94.27;98683.97;6215189;23;20027;-64
2021/12/28 11:00:44;;;;;;;14.00;10.40;;;;;;;6.14;93.51;98679.16;6215239;23;20532;-64
2021/12/28 11:03:53;;;;;;;13.98;10.43;;;;;;;6.17;92.87;98668.56;6215336;23;20039;-64
2021/12/28 11:06:56;;;;;;;15.65;11.65;;;;;;;6.29;94.21;98659.19;6215148;23;20051;-64
2021/12/28 11:10:03;;;;;;;18.08;14.88;;;;;;;6.45;92.87;98657.25;6245471;23;20027;-64
2021/12/28 11:13:07;;;;;;;16.20;13.90;;;;;;;6.49;92.88;98647.50;6233639;23;20050;-64
2021/12/28 11:16:13;;;;;;;15.75;9.80;;;;;;;6.54;92.69;98642.84;6239020;23;20468;-64
2021/12/28 11:19:32;;;;;;;31.30;27.90;;;;;;;6.60;93.24;98634.63;6237569;23;20050;-66
2021/12/28 11:22:35;;;;;;;31.63;28.23;;;;;;;6.67;93.22;98624.69;6237861;23;20500;-65
2021/12/28 11:26:34;;;;;;;15.35;13.70;;;;;;;6.68;93.52;98629.75;6270424;22;20031;-69
2021/12/28 11:29:39;;;;;;;10.35;8.93;;;;;;;6.76;92.85;98621.44;6269836;22;20033;-69
2021/12/28 11:32:42;;;;;;;10.30;6.85;;;;;;;6.89;94.04;98611.06;6267453;22;20550;-69
2021/12/28 11:35:47;;;;;;;;;;;;;;;6.98;94.32;98607.84;6270579;22;20107;-69
2021/12/28 11:38:52;;;;;;;12.80;9.30;;;;;;;6.85;94.59;98602.66;6270860;22;19917;-69
2021/12/28 11:41:56;;;;;;;18.38;12.43;;;;;;;6.90;95.01;98591.97;6270567;22;20100;-69
2021/12/28 11:45:01;;;;;;;12.75;10.10;;;;;;;6.88;97.51;98592.03;6270115;22;20026;-69
2021/12/28 11:48:06;;;;;;;18.85;15.50;;;;;;;6.86;96.77;98590.47;6249899;22;20057;-69
2021/12/28 11:51:10;;;;;;;;;;;;;;;7.07;97.90;98578.63;6269561;22;20039;-69
2021/12/28 11:54:15;;;;;;;17.05;13.23;;;;;;;7.16;96.66;98567.59;6271656;22;19957;-70
2021/12/28 11:57:26;;;;;;;16.23;13.20;;;;;;;7.21;97.50;98555.13;6275271;22;20403;-70
2021/12/28 12:00:40;;;;;;;12.48;10.88;;;;;;;7.27;96.34;98545.22;6275364;22;20077;-70
2021/12/28 12:03:45;;;;;;;15.88;13.75;;;;;;;7.23;96.92;98549.81;6275382;22;20026;-70
2021/12/28 12:07:31;;;;;;;24.70;19.40;;;;;;;7.12;97.50;98547.16;6275650;22;20080;-70
2021/12/28 12:10:36;;;;;;;25.92;22.25;;;;;;;7.15;98.56;98541.72;6274742;22;20065;-70
2021/12/28 12:13:48;;;;;;;27.35;22.95;;;;;;;7.16;98.55;98538.19;6275462;22;20023;-70
2021/12/28 12:17:26;;;;;;;55.42;41.88;;;;;;;7.06;98.23;98527.59;6275523;22;20074;-69
2021/12/28 12:20:34;;;;;;;29.73;25.95;;;;;;;7.11;98.98;98519.47;6275575;22;20039;-69
2021/12/28 12:23:44;;;;;;;34.10;24.98;;;;;;;7.13;99.25;98534.03;6276010;22;20030;-69
2021/12/28 12:26:47;;;;;;;60.72;48.90;;;;;;;7.12;99.23;98531.56;6276047;22;20057;-69
2021/12/28 12:29:50;;;;;;;;;;;;;;;7.17;98.87;98519.03;6276830;22;20069;-69
2021/12/28 12:33:10;;;;;;;37.08;31.13;;;;;;;7.21;98.26;98526.53;6276073;22;19913;-69
2021/12/28 12:37:04;;;;;;;24.50;21.67;;;;;;;7.17;98.12;98514.69;6274965;22;20065;-69
2021/12/28 12:40:08;;;;;;;26.05;21.42;;;;;;;7.26;98.16;98512.38;6275018;22;20106;-69
2021/12/28 12:43:13;;;;;;;24.13;21.52;;;;;;;7.29;97.81;98509.56;6275388;22;20026;-69
2021/12/28 12:46:46;;;;;;;23.45;19.23;;;;;;;7.34;98.09;98500.50;6275221;22;20034;-69
2021/12/28 12:50:06;;;;;;;21.88;17.77;;;;;;;7.23;97.98;98493.44;6275441;22;20023;-69
2021/12/28 12:53:42;;;;;;;19.23;13.98;;;;;;;7.39;99.90;98487.16;6275158;22;20077;-69
2021/12/28 12:56:51;;;;;;;17.80;15.52;;;;;;;7.32;99.56;98496.34;6275244;22;20472;-69
2021/12/28 13:00:16;;;;;;;14.68;12.90;;;;;;;7.35;99.59;98496.94;6275300;22;20027;-69
2021/12/28 13:03:32;;;;;;;19.38;16.27;;;;;;;7.31;99.80;98481.69;6275353;22;20073;-69
2021/12/28 13:06:42;;;;;;;18.02;11.40;;;;;;;7.36;99.81;98484.78;6275152;22;20026;-69
2021/12/28 13:10:00;;;;;;;13.18;9.98;;;;;;;7.43;100.00;98467.78;6275166;22;20073;-69
2021/12/28 13:13:04;;;;;;;16.50;12.18;;;;;;;7.50;100.00;98469.03;6275307;22;20050;-69
2021/12/28 13:16:07;;;;;;;;;;;;;;;7.54;100.00;98456.63;6275627;22;20099;-70
2021/12/28 13:19:14;;;;;;;20.08;11.25;;;;;;;7.54;99.65;98456.63;6275001;22;19918;-70
2021/12/28 13:22:17;;;;;;;32.55;25.98;;;;;;;7.59;98.92;98455.34;6274965;22;20026;-70
2021/12/28 13:25:34;;;;;;;27.70;21.20;;;;;;;7.57;99.26;98459.00;6273860;22;20150;-71
2021/12/28 13:28:37;;;;;;;19.27;16.10;;;;;;;7.98;98.71;98465.56;6273705;22;20391;-68
2021/12/28 13:31:41;;;;;;;12.05;10.70;;;;;;;7.90;98.68;98471.31;6260391;22;20093;-78
2021/12/28 13:35:17;;;;;;;7.30;4.20;;;;;;;8.66;97.72;98469.09;6275745;22;20035;-75
2021/12/28 13:38:22;;;;;;;9.75;6.05;;;;;;;8.80;96.16;98515.75;6267551;22;20412;-71
2021/12/28 13:41:26;;;;;;;4.57;1.95;;;;;;;8.85;96.68;98505.81;6274227;22;20558;-71
2021/12/28 13:44:29;;;;;;;;;;;;;;;9.11;90.29;98490.75;6273660;22;20573;-71
2021/12/28 13:47:35;;;;;;;5.97;2.25;;;;;;;9.26;90.61;98488.72;6268069;22;19914;-70
2021/12/28 13:50:41;;;;;;;5.78;2.53;;;;;;;9.21;90.59;98489.06;6274261;22;20037;-71
2021/12/28 13:53:52;;;;;;;3.97;0.90;;;;;;;9.42;87.04;98489.16;6256347;22;20030;-70
2021/12/28 13:56:59;;;;;;;8.90;2.38;;;;;;;9.23;88.56;98517.66;6272009;22;20022;-70
2021/12/28 14:00:06;;;;;;;8.57;2.08;;;;;;;9.34;84.76;98517.63;6265262;22;20530;-71
2021/12/28 14:03:15;;;;;;;9.82;1.75;;;;;;;9.39;82.98;98525.91;6267170;22;20418;-71
2021/12/28 14:06:19;;;;;;;7.97;2.30;;;;;;;9.34;82.74;98533.25;6269340;22;20057;-71
2021/12/28 14:09:27;;;;;;;14.27;2.72;;;;;;;9.50;79.44;98520.66;6267230;22;20026;-71
2021/12/28 14:12:37;;;;;;;7.90;2.95;;;;;;;9.57;77.75;98507.94;6269546;22;20400;-71
2021/12/28 14:15:59;;;;;;;13.20;2.38;;;;;;;9.50;78.89;98515.44;6271118;22;20030;-71
2021/12/28 14:19:02;;;;;;;13.43;3.30;;;;;;;9.47;77.54;98520.06;6266517;22;20030;-71
2021/12/28 14:22:15;;;;;;;14.65;4.03;;;;;;;9.49;76.77;98520.78;6269921;22;20050;-71
2021/12/28 14:25:20;;;;;;;14.75;2.88;;;;;;;9.55;76.02;98525.53;6270590;22;20496;-71
2021/12/28 14:28:24;;;;;;;16.75;3.78;;;;;;;9.38;76.74;98534.69;6268687;22;20027;-71
2021/12/28 14:31:52;;;;;;;15.63;5.35;;;;;;;9.23;76.26;98535.91;6264150;22;20138;-71
2021/12/28 14:35:02;;;;;;;15.38;2.92;;;;;;;9.29;74.56;98558.88;6270003;22;20027;-70
2021/12/28 14:38:09;;;;;;;31.92;18.33;;;;;;;9.30;75.79;98555.31;6268463;22;20026;-72
2021/12/28 14:41:24;;;;;;;19.50;3.65;;;;;;;9.36;74.09;98557.44;6267216;22;20033;-71
2021/12/28 14:44:32;;;;;;;16.33;4.18;;;;;;;9.21;76.67;98579.50;6266451;22;20107;-71
2021/12/28 14:47:38;;;;;;;16.05;3.95;;;;;;;9.06;77.68;98581.50;6263575;22;20053;-71
2021/12/28 14:50:41;;;;;;;15.57;3.70;;;;;;;9.01;77.75;98594.91;6265234;22;20271;-70
2021/12/28 14:53:44;;;;;;;17.27;3.90;;;;;;;8.93;79.02;98591.22;6268599;22;20100;-71
2021/12/28 14:56:50;;;;;;;19.17;4.90;;;;;;;8.92;78.27;98590.41;6268931;22;20070;-71
2021/12/28 15:00:44;;;;;;;19.48;4.55;;;;;;;8.85;79.44;98594.44;6272603;22;20023;-66
2021/12/28 15:03:58;;;;;;;15.43;3.75;;;;;;;8.66;81.66;98599.38;6268988;22;20049;-66
2021/12/28 15:07:02;;;;;;;17.42;4.20;;;;;;;8.59;82.44;98597.22;6266196;22;20038;-66
2021/12/28 15:10:11;;;;;;;19.50;3.58;;;;;;;8.52;83.80;98601.25;6250401;22;20019;-66
2021/12/28 15:13:17;;;;;;;15.90;4.18;;;;;;;8.40;85.20;98604.75;6269110;22;20073;-67
2021/12/28 15:16:20;;;;;;;15.43;4.35;;;;;;;8.24;85.91;98606.78;6269392;22;20026;-66
2021/12/28 15:19:27;;;;;;;17.13;5.82;;;;;;;8.30;85.07;98599.34;6267586;22;20023;-68
2021/12/28 15:22:32;;;;;;;18.38;3.88;;;;;;;8.29;84.73;98596.84;6268780;22;20089;-66
2021/12/28 15:25:36;;;;;;;24.77;6.97;;;;;;;8.38;84.17;98601.41;6269399;22;20403;-66
2021/12/28 15:28:39;;;;;;;19.83;4.68;;;;;;;8.41;84.06;98602.97;6269442;22;20065;-66
2021/12/28 15:31:45;;;;;;;;;;;;;;;8.31;85.47;98611.41;6270451;22;20356;-66
2021/12/28 15:34:48;;;;;;;18.67;9.68;;;;;;;8.23;85.85;98605.97;6269628;22;19998;-66